createdAt,value
2019-03-01T00:01:18.776Z,99521.45
2019-03-01T00:03:59.715Z,99517.30
2019-03-01T00:06:44.326Z,99517.63
2019-03-01T00:09:50.117Z,99513.37
2019-03-01T00:12:59.823Z,99506.97
2019-03-01T00:16:24.408Z,99497.87
2019-03-01T00:19:31.905Z,99510.07
2019-03-01T00:22:46.670Z,99499.63
2019-03-01T00:25:54.442Z,99497.03
2019-03-01T00:29:13.652Z,99503.16
2019-03-01T00:32:08.850Z,99498.67
2019-03-01T00:35:17.525Z,99493.23
2019-03-01T00:38:06.230Z,99495.14
2019-03-01T00:40:54.479Z,99497.89
2019-03-01T00:44:09.867Z,99490.09
2019-03-01T00:46:40.793Z,99485.83
2019-03-01T00:49:11.732Z,99479.53
2019-03-01T00:51:42.638Z,99492.66
2019-03-01T00:54:13.517Z,99484.36
2019-03-01T00:56:44.417Z,99481.66
2019-03-01T00:59:15.385Z,99477.63
2019-03-01T01:01:46.372Z,99476.20
2019-03-01T01:04:17.434Z,99473.63
2019-03-01T01:06:48.367Z,99474.36
2019-03-01T01:09:19.242Z,99474.20
2019-03-01T01:11:50.125Z,99462.13
2019-03-01T01:14:21.006Z,99480.14
2019-03-01T01:16:52.031Z,99471.41
2019-03-01T01:19:22.901Z,99462.20
2019-03-01T01:21:54.852Z,99468.53
2019-03-01T01:24:25.849Z,99453.50
2019-03-01T01:26:56.643Z,99448.55
2019-03-01T01:29:27.512Z,99447.82
2019-03-01T01:31:58.323Z,99455.00
2019-03-01T01:34:29.175Z,99453.64
2019-03-01T01:37:00.079Z,99453.50
2019-03-01T01:39:30.981Z,99458.38
2019-03-01T01:42:01.866Z,99456.45
2019-03-01T01:44:33.147Z,99458.25
2019-03-01T01:47:04.030Z,99455.38
2019-03-01T01:49:34.911Z,99456.73
2019-03-01T01:52:05.721Z,99453.23
2019-03-01T01:54:36.812Z,99452.52
2019-03-01T01:57:07.604Z,99449.12
2019-03-01T01:59:38.490Z,99439.48
2019-03-01T02:02:09.475Z,99438.88
2019-03-01T02:04:40.550Z,99441.86
2019-03-01T02:07:11.445Z,99432.25
2019-03-01T02:09:42.336Z,99422.63
2019-03-01T02:12:13.182Z,99414.22
2019-03-01T02:14:44.016Z,99418.98
2019-03-01T02:17:14.905Z,99418.69
2019-03-01T02:19:45.794Z,99412.69
2019-03-01T02:22:16.578Z,99409.70
2019-03-01T02:24:47.550Z,99410.73
2019-03-01T02:27:29.194Z,99404.84
2019-03-01T02:30:01.239Z,99406.47
2019-03-01T02:32:38.564Z,99405.67
2019-03-01T02:35:11.462Z,99398.51
2019-03-01T02:37:42.362Z,99394.03
2019-03-01T02:40:13.990Z,99383.09
2019-03-01T02:42:44.853Z,99383.81
2019-03-01T02:45:17.682Z,99388.47
2019-03-01T02:47:48.891Z,99381.73
2019-03-01T02:50:20.197Z,99385.34
2019-03-01T02:52:52.000Z,99370.36
2019-03-01T02:55:23.704Z,99367.05
2019-03-01T02:57:54.510Z,99368.18
2019-03-01T03:00:29.289Z,99358.47
2019-03-01T03:03:00.280Z,99357.23
2019-03-01T03:05:31.331Z,99346.18
2019-03-01T03:08:04.105Z,99353.31
2019-03-01T03:10:35.161Z,99350.95
2019-03-01T03:13:08.218Z,99344.10
2019-03-01T03:15:44.692Z,99339.24
2019-03-01T03:18:15.665Z,99333.46
2019-03-01T03:20:46.457Z,99336.16
2019-03-01T03:23:17.345Z,99333.28
2019-03-01T03:25:48.134Z,99318.59
2019-03-01T03:28:19.109Z,99323.17
2019-03-01T03:30:49.892Z,99313.83
2019-03-01T03:33:20.907Z,99310.97
2019-03-01T03:35:51.683Z,99311.91
2019-03-01T03:38:22.573Z,99309.84
2019-03-01T03:40:53.463Z,99311.41
2019-03-01T03:43:24.336Z,99312.56
2019-03-01T03:45:56.317Z,99295.59
2019-03-01T03:48:27.334Z,99289.53
2019-03-01T03:50:58.119Z,99289.71
2019-03-01T03:53:29.837Z,99292.55
2019-03-01T03:56:00.710Z,99286.44
2019-03-01T03:58:32.338Z,99287.67
2019-03-01T04:01:03.323Z,99286.00
2019-03-01T04:03:34.373Z,99281.47
2019-03-01T04:06:05.391Z,99280.95
2019-03-01T04:08:36.885Z,99281.35
2019-03-01T04:11:07.679Z,99275.06
2019-03-01T04:13:38.662Z,99276.81
2019-03-01T04:16:09.468Z,99280.16
2019-03-01T04:18:40.357Z,99263.63
2019-03-01T04:21:11.222Z,99254.11
2019-03-01T04:23:42.009Z,99254.50
2019-03-01T04:26:13.011Z,99243.67
2019-03-01T04:28:43.985Z,99240.77
2019-03-01T04:31:14.910Z,99235.00
2019-03-01T04:33:45.857Z,99223.63
2019-03-01T04:36:17.130Z,99228.16
2019-03-01T04:38:48.033Z,99216.07
2019-03-01T04:41:18.849Z,99221.16
2019-03-01T04:43:49.640Z,99217.38
2019-03-01T04:46:20.329Z,99226.39
2019-03-01T04:48:51.305Z,99225.05
2019-03-01T04:51:22.092Z,99218.25
2019-03-01T04:53:52.989Z,99222.17
2019-03-01T04:56:23.852Z,99211.42
2019-03-01T04:58:54.848Z,99210.91
2019-03-01T05:01:25.746Z,99200.77
2019-03-01T05:03:57.026Z,99200.16
2019-03-01T05:06:28.061Z,99204.41
2019-03-01T05:08:58.997Z,99204.88
2019-03-01T05:11:29.909Z,99214.91
2019-03-01T05:14:00.847Z,99205.43
2019-03-01T05:16:31.570Z,99202.23
2019-03-01T05:19:02.568Z,99194.06
2019-03-01T05:21:33.341Z,99188.97
2019-03-01T05:24:04.360Z,99185.16
2019-03-01T05:26:35.229Z,99187.95
2019-03-01T05:29:06.166Z,99181.52
2019-03-01T05:31:37.200Z,99177.31
2019-03-01T05:34:08.223Z,99172.55
2019-03-01T05:36:39.076Z,99179.34
2019-03-01T05:39:09.978Z,99173.28
2019-03-01T05:41:40.849Z,99165.50
2019-03-01T05:44:12.033Z,99173.17
2019-03-01T05:46:42.844Z,99185.16
2019-03-01T05:49:13.823Z,99180.95
2019-03-01T05:51:44.725Z,99179.38
2019-03-01T05:54:16.325Z,99176.80
2019-03-01T05:56:47.117Z,99185.59
2019-03-01T05:59:20.385Z,99181.75
2019-03-01T06:02:14.074Z,99187.34
2019-03-01T06:04:57.876Z,99184.42
2019-03-01T06:08:21.484Z,99188.47
2019-03-01T06:11:44.827Z,99185.16
2019-03-01T06:15:06.078Z,99188.14
2019-03-01T06:18:26.887Z,99188.02
2019-03-01T06:21:24.350Z,99190.42
2019-03-01T06:24:11.200Z,99186.06
2019-03-01T06:27:21.835Z,99191.77
2019-03-01T06:30:03.676Z,99192.37
2019-03-01T06:33:24.420Z,99192.05
2019-03-01T06:36:43.692Z,99187.41
2019-03-01T06:40:00.293Z,99194.45
2019-03-01T06:42:56.072Z,99191.55
2019-03-01T06:45:51.849Z,99197.47
2019-03-01T06:48:30.803Z,99204.48
2019-03-01T06:51:08.798Z,99203.06
2019-03-01T06:53:39.775Z,99199.14
2019-03-01T06:56:10.828Z,99200.70
2019-03-01T06:58:47.631Z,99196.28
2019-03-01T07:01:20.107Z,99195.95
2019-03-01T07:03:59.018Z,99202.06
2019-03-01T07:06:29.876Z,99200.53
2019-03-01T07:09:00.943Z,99200.75
2019-03-01T07:11:33.179Z,99203.65
2019-03-01T07:14:04.341Z,99207.39
2019-03-01T07:16:35.249Z,99214.75
2019-03-01T07:19:06.451Z,99221.97
2019-03-01T07:21:37.703Z,99225.58
2019-03-01T07:24:09.034Z,99228.26
2019-03-01T07:26:39.829Z,99226.00
2019-03-01T07:29:10.711Z,99228.48
2019-03-01T07:31:41.674Z,99227.53
2019-03-01T07:34:12.669Z,99229.09
2019-03-01T07:36:44.000Z,99225.06
2019-03-01T07:39:15.041Z,99226.33
2019-03-01T07:41:45.952Z,99228.39
2019-03-01T07:44:16.725Z,99234.57
2019-03-01T07:46:52.955Z,99234.49
2019-03-01T07:49:20.139Z,99233.63
2019-03-01T07:51:51.041Z,99241.50
2019-03-01T07:54:22.488Z,99235.73
2019-03-01T07:56:53.399Z,99233.77
2019-03-01T07:59:24.306Z,99233.55
2019-03-01T08:01:56.004Z,99228.58
2019-03-01T08:04:28.834Z,99223.31
2019-03-01T08:06:59.701Z,99222.30
2019-03-01T08:09:30.496Z,99229.69
2019-03-01T08:12:03.693Z,99230.95
2019-03-01T08:14:34.006Z,99222.89
2019-03-01T08:17:05.124Z,99228.16
2019-03-01T08:19:35.804Z,99227.00
2019-03-01T08:22:06.774Z,99228.77
2019-03-01T08:24:37.561Z,99230.92
2019-03-01T08:27:09.978Z,99229.28
2019-03-01T08:29:41.047Z,99221.20
2019-03-01T08:32:11.838Z,99225.63
2019-03-01T08:34:42.766Z,99218.91
2019-03-01T08:37:14.471Z,99217.16
2019-03-01T08:39:46.162Z,99212.91
2019-03-01T08:42:17.013Z,99209.39
2019-03-01T08:44:48.089Z,99199.47
2019-03-01T08:47:23.278Z,99208.37
2019-03-01T08:49:51.372Z,99204.12
2019-03-01T08:52:22.427Z,99205.54
2019-03-01T08:54:53.229Z,99214.77
2019-03-01T08:57:26.570Z,99223.16
2019-03-01T08:59:56.713Z,99222.86
2019-03-01T09:02:27.493Z,99221.20
2019-03-01T09:04:58.430Z,99232.16
2019-03-01T09:07:30.208Z,99237.56
2019-03-01T09:10:01.725Z,99235.68
2019-03-01T09:12:32.567Z,99232.27
2019-03-01T09:15:04.519Z,99236.05
2019-03-01T09:17:36.285Z,99224.43
2019-03-01T09:20:07.435Z,99230.92
2019-03-01T09:22:38.417Z,99231.11
2019-03-01T09:25:10.709Z,99227.00
2019-03-01T09:27:41.589Z,99225.66
2019-03-01T09:30:15.595Z,99227.07
2019-03-01T09:32:46.546Z,99225.03
2019-03-01T09:35:36.210Z,99218.53
2019-03-01T09:38:07.667Z,99228.30
2019-03-01T09:40:45.563Z,99223.36
2019-03-01T09:43:16.401Z,99226.34
2019-03-01T09:45:48.828Z,99229.64
2019-03-01T09:48:20.008Z,99229.25
2019-03-01T09:50:51.099Z,99235.75
2019-03-01T09:53:30.673Z,99235.75
2019-03-01T09:55:59.999Z,99238.55
2019-03-01T09:58:30.281Z,99245.88
2019-03-01T10:01:04.953Z,99242.14
2019-03-01T10:04:11.115Z,99230.77
2019-03-01T10:06:41.951Z,99236.42
2019-03-01T10:09:13.144Z,99235.13
2019-03-01T10:11:44.041Z,99236.20
2019-03-01T10:14:15.076Z,99229.75
2019-03-01T10:16:46.024Z,99236.70
2019-03-01T10:19:30.485Z,99233.79
2019-03-01T10:22:01.396Z,99234.89
2019-03-01T10:24:32.295Z,99230.29
2019-03-01T10:27:03.144Z,99239.61
2019-03-01T10:29:33.938Z,99244.58
2019-03-01T10:32:05.103Z,99245.31
2019-03-01T10:34:44.724Z,99250.59
2019-03-01T10:37:15.706Z,99250.70
2019-03-01T10:39:55.149Z,99251.38
2019-03-01T10:42:19.112Z,99251.29
2019-03-01T10:44:49.982Z,99254.71
2019-03-01T10:47:21.058Z,99259.90
2019-03-01T10:49:51.782Z,99257.51
2019-03-01T10:52:22.770Z,99257.41
2019-03-01T10:54:53.544Z,99258.53
2019-03-01T10:57:24.422Z,99259.92
2019-03-01T10:59:55.210Z,99259.23
2019-03-01T11:02:26.256Z,99262.95
2019-03-01T11:04:57.106Z,99265.52
2019-03-01T11:07:28.086Z,99269.69
2019-03-01T11:09:58.870Z,99273.53
2019-03-01T11:12:29.847Z,99267.15
2019-03-01T11:15:00.681Z,99267.76
2019-03-01T11:17:32.675Z,99273.19
2019-03-01T11:20:03.455Z,99270.56
2019-03-01T11:22:35.366Z,99266.11
2019-03-01T11:25:07.371Z,99258.71
2019-03-01T11:27:38.358Z,99268.02
2019-03-01T11:30:14.880Z,99269.17
2019-03-01T11:32:45.966Z,99273.98
2019-03-01T11:35:17.984Z,99269.14
2019-03-01T11:37:49.066Z,99266.77
2019-03-01T11:40:24.783Z,99269.30
2019-03-01T11:42:55.962Z,99271.77
2019-03-01T11:45:26.865Z,99268.43
2019-03-01T11:47:57.729Z,99268.34
2019-03-01T11:50:47.996Z,99270.55
2019-03-01T11:53:18.914Z,99275.97
2019-03-01T11:56:03.593Z,99280.73
2019-03-01T11:58:34.876Z,99280.94
2019-03-01T12:01:17.217Z,99277.77
2019-03-01T12:03:46.571Z,99280.64
2019-03-01T12:06:17.369Z,99276.25
2019-03-01T12:08:48.378Z,99282.72
2019-03-01T12:11:19.175Z,99277.39
2019-03-01T12:13:50.051Z,99282.00
2019-03-01T12:16:40.587Z,99281.17
2019-03-01T12:19:11.477Z,99283.41
2019-03-01T12:21:42.350Z,99280.33
2019-03-01T12:24:13.186Z,99273.36
2019-03-01T12:27:03.948Z,99274.09
2019-03-01T12:29:49.049Z,99278.03
2019-03-01T12:32:20.029Z,99276.27
2019-03-01T12:34:50.902Z,99274.95
2019-03-01T12:37:21.675Z,99267.31
2019-03-01T12:39:52.566Z,99271.45
2019-03-01T12:42:23.328Z,99273.31
2019-03-01T12:45:14.164Z,99268.95
2019-03-01T12:47:45.123Z,99268.95
2019-03-01T12:50:16.002Z,99273.53
2019-03-01T12:52:46.892Z,99274.88
2019-03-01T12:55:18.891Z,99274.14
2019-03-01T12:58:01.552Z,99274.34
2019-03-01T13:00:32.835Z,99277.98
2019-03-01T13:03:05.261Z,99282.41
2019-03-01T13:05:36.358Z,99286.77
2019-03-01T13:08:07.240Z,99287.55
2019-03-01T13:10:40.273Z,99286.50
2019-03-01T13:13:11.489Z,99289.39
2019-03-01T13:15:45.369Z,99291.14
2019-03-01T13:18:16.728Z,99294.16
2019-03-01T13:20:48.134Z,99300.72
2019-03-01T13:23:19.027Z,99301.02
2019-03-01T13:25:49.975Z,99304.77
2019-03-01T13:28:20.854Z,99307.52
2019-03-01T13:30:51.638Z,99301.45
2019-03-01T13:33:22.618Z,99305.69
2019-03-01T13:35:53.413Z,99303.42
2019-03-01T13:38:24.318Z,99304.70
2019-03-01T13:40:55.201Z,99312.44
2019-03-01T13:43:27.372Z,99313.17
2019-03-01T13:46:00.249Z,99307.66
2019-03-01T13:48:31.197Z,99311.42
2019-03-01T13:51:02.116Z,99317.72
2019-03-01T13:53:34.204Z,99316.69
2019-03-01T13:56:05.209Z,99322.44
2019-03-01T13:58:36.237Z,99316.50
2019-03-01T14:01:08.205Z,99320.52
2019-03-01T14:03:39.227Z,99320.86
2019-03-01T14:06:10.198Z,99320.42
2019-03-01T14:08:41.272Z,99318.72
2019-03-01T14:11:15.316Z,99320.80
2019-03-01T14:13:47.805Z,99325.94
2019-03-01T14:16:20.413Z,99325.94
2019-03-01T14:18:49.654Z,99323.95
2019-03-01T14:21:20.443Z,99319.12
2019-03-01T14:23:51.350Z,99323.62
2019-03-01T14:26:22.231Z,99321.69
2019-03-01T14:28:53.198Z,99329.84
2019-03-01T14:31:23.997Z,99334.55
2019-03-01T14:33:55.867Z,99336.91
2019-03-01T14:36:26.693Z,99340.30
2019-03-01T14:38:57.853Z,99346.53
2019-03-01T14:41:34.229Z,99345.47
2019-03-01T14:44:01.287Z,99344.77
2019-03-01T14:46:32.093Z,99350.25
2019-03-01T14:49:02.997Z,99353.53
2019-03-01T14:51:33.756Z,99350.92
2019-03-01T14:54:07.065Z,99352.23
2019-03-01T14:56:41.690Z,99358.66
2019-03-01T14:59:38.086Z,99349.01
2019-03-01T15:02:39.793Z,99352.27
2019-03-01T15:05:16.747Z,99355.33
2019-03-01T15:07:39.815Z,99354.44
2019-03-01T15:11:09.273Z,99357.45
2019-03-01T15:13:39.675Z,99365.09
2019-03-01T15:16:10.821Z,99370.61
2019-03-01T15:18:42.555Z,99374.30
2019-03-01T15:21:13.721Z,99370.61
2019-03-01T15:23:44.729Z,99370.61
2019-03-01T15:26:15.730Z,99374.48
2019-03-01T15:28:55.816Z,99379.64
2019-03-01T15:31:26.714Z,99382.45
2019-03-01T15:33:57.597Z,99383.12
2019-03-01T15:36:28.845Z,99383.12
2019-03-01T15:38:59.686Z,99384.91
2019-03-01T15:41:30.585Z,99386.38
2019-03-01T15:44:01.262Z,99386.99
2019-03-01T15:46:32.162Z,99389.99
2019-03-01T15:49:05.074Z,99391.16
2019-03-01T15:51:38.098Z,99380.10
2019-03-01T15:54:07.972Z,99387.30
2019-03-01T15:56:39.568Z,99395.88
2019-03-01T15:59:11.447Z,99391.56
2019-03-01T16:01:43.756Z,99397.94
2019-03-01T16:04:15.939Z,99398.42
2019-03-01T16:06:46.913Z,99397.70
2019-03-01T16:09:18.105Z,99399.63
2019-03-01T16:11:49.098Z,99402.30
2019-03-01T16:14:23.829Z,99409.52
2019-03-01T16:16:53.518Z,99411.55
2019-03-01T16:19:24.523Z,99404.98
2019-03-01T16:21:55.714Z,99410.38
2019-03-01T16:24:26.622Z,99406.27
2019-03-01T16:26:57.479Z,99410.33
2019-03-01T16:29:28.489Z,99410.33
2019-03-01T16:32:04.771Z,99407.98
2019-03-01T16:34:34.196Z,99414.37
2019-03-01T16:37:42.138Z,99418.42
2019-03-01T16:40:22.778Z,99431.82
2019-03-01T16:42:54.681Z,99436.61
2019-03-01T16:45:25.689Z,99437.22
2019-03-01T16:47:56.463Z,99434.35
2019-03-01T16:50:27.451Z,99439.73
2019-03-01T16:52:58.235Z,99439.85
2019-03-01T16:55:29.035Z,99447.02
2019-03-01T16:58:06.714Z,99449.20
2019-03-01T17:00:32.959Z,99453.42
2019-03-01T17:03:03.826Z,99453.42
2019-03-01T17:05:35.790Z,99463.57
2019-03-01T17:08:07.566Z,99461.71
2019-03-01T17:10:38.542Z,99471.25
2019-03-01T17:13:09.218Z,99471.61
2019-03-01T17:15:41.318Z,99478.34
2019-03-01T17:18:12.497Z,99487.77
2019-03-01T17:20:43.730Z,99489.23
2019-03-01T17:23:14.534Z,99483.54
2019-03-01T17:25:47.577Z,99480.85
2019-03-01T17:28:22.853Z,99488.81
2019-03-01T17:30:51.775Z,99488.41
2019-03-01T17:33:22.785Z,99491.41
2019-03-01T17:35:53.946Z,99493.70
2019-03-01T17:38:24.989Z,99501.24
2019-03-01T17:40:55.969Z,99494.94
2019-03-01T17:43:29.653Z,99502.49
2019-03-01T17:45:59.464Z,99504.23
2019-03-01T17:48:30.352Z,99509.31
2019-03-01T17:51:01.297Z,99509.62
2019-03-01T17:53:32.414Z,99510.34
2019-03-01T17:56:04.959Z,99510.44
2019-03-01T17:58:35.847Z,99518.72
2019-03-01T18:01:06.907Z,99520.16
2019-03-01T18:03:38.851Z,99524.81
2019-03-01T18:06:12.952Z,99527.17
2019-03-01T18:09:08.895Z,99526.75
2019-03-01T18:11:40.667Z,99538.01
2019-03-01T18:14:12.626Z,99544.73
2019-03-01T18:16:43.487Z,99548.25
2019-03-01T18:19:14.290Z,99550.11
2019-03-01T18:21:46.446Z,99552.70
2019-03-01T18:24:17.704Z,99558.37
2019-03-01T18:26:48.688Z,99560.44
2019-03-01T18:29:19.488Z,99562.83
2019-03-01T18:31:50.456Z,99564.89
2019-03-01T18:34:21.251Z,99577.48
2019-03-01T18:36:52.128Z,99577.90
2019-03-01T18:39:23.032Z,99584.33
2019-03-01T18:41:53.930Z,99584.20
2019-03-01T18:44:25.868Z,99577.36
2019-03-01T18:46:57.634Z,99576.34
2019-03-01T18:49:29.455Z,99571.77
2019-03-01T18:52:00.450Z,99578.19
2019-03-01T18:54:31.212Z,99579.98
2019-03-01T18:57:03.781Z,99582.05
2019-03-01T18:59:34.748Z,99581.33
2019-03-01T19:02:05.748Z,99589.31
2019-03-01T19:04:36.606Z,99593.47
2019-03-01T19:07:07.599Z,99591.35
2019-03-01T19:09:38.386Z,99587.42
2019-03-01T19:12:12.430Z,99598.02
2019-03-01T19:14:42.720Z,99603.80
2019-03-01T19:17:13.803Z,99600.78
2019-03-01T19:19:44.615Z,99599.87
2019-03-01T19:22:15.507Z,99602.46
2019-03-01T19:24:46.845Z,99605.02
2019-03-01T19:27:19.194Z,99603.47
2019-03-01T19:29:49.983Z,99612.92
2019-03-01T19:32:23.657Z,99617.50
2019-03-01T19:34:53.822Z,99615.38
2019-03-01T19:37:24.708Z,99617.08
2019-03-01T19:39:55.487Z,99613.54
2019-03-01T19:42:29.510Z,99616.67
2019-03-01T19:45:00.813Z,99614.73
2019-03-01T19:47:32.975Z,99615.52
2019-03-01T19:50:03.859Z,99614.55
2019-03-01T19:52:34.740Z,99612.19
2019-03-01T19:55:07.974Z,99618.97
2019-03-01T19:57:38.875Z,99626.77
2019-03-01T20:00:15.404Z,99627.84
2019-03-01T20:02:47.431Z,99632.06
2019-03-01T20:05:20.095Z,99630.52
2019-03-01T20:07:51.750Z,99625.73
2019-03-01T20:10:24.074Z,99625.67
2019-03-01T20:12:55.200Z,99634.56
2019-03-01T20:15:26.448Z,99635.13
2019-03-01T20:17:57.803Z,99639.48
2019-03-01T20:20:29.951Z,99651.92
2019-03-01T20:23:08.766Z,99650.27
2019-03-01T20:26:00.307Z,99642.69
2019-03-01T20:28:31.291Z,99651.54
2019-03-01T20:31:04.972Z,99651.72
2019-03-01T20:33:37.149Z,99653.91
2019-03-01T20:36:26.077Z,99657.28
2019-03-01T20:38:58.287Z,99653.84
2019-03-01T20:41:29.096Z,99652.04
2019-03-01T20:44:01.188Z,99660.78
2019-03-01T20:46:32.100Z,99663.93
2019-03-01T20:49:03.811Z,99670.23
2019-03-01T20:51:35.586Z,99667.39
2019-03-01T20:54:06.586Z,99670.95
2019-03-01T20:56:37.387Z,99677.02
2019-03-01T20:59:08.275Z,99680.27
2019-03-01T21:01:39.060Z,99685.00
2019-03-01T21:04:10.018Z,99687.23
2019-03-01T21:06:41.476Z,99689.11
2019-03-01T21:09:12.915Z,99690.00
2019-03-01T21:11:43.735Z,99690.30
2019-03-01T21:14:14.621Z,99688.90
2019-03-01T21:16:45.777Z,99678.50
2019-03-01T21:19:16.815Z,99670.76
2019-03-01T21:21:47.594Z,99677.52
2019-03-01T21:24:18.664Z,99674.66
2019-03-01T21:26:51.240Z,99684.50
2019-03-01T21:29:23.108Z,99692.80
2019-03-01T21:31:53.916Z,99696.97
2019-03-01T21:34:24.868Z,99691.66
2019-03-01T21:36:58.985Z,99697.06
2019-03-01T21:39:29.079Z,99701.57
2019-03-01T21:41:59.902Z,99701.17
2019-03-01T21:44:30.813Z,99700.14
2019-03-01T21:47:01.576Z,99705.38
2019-03-01T21:49:32.370Z,99697.86
2019-03-01T21:52:03.134Z,99707.55
2019-03-01T21:54:34.051Z,99700.92
2019-03-01T21:57:05.043Z,99702.01
2019-03-01T21:59:36.036Z,99703.99
2019-03-01T22:02:07.412Z,99702.77
2019-03-01T22:04:38.392Z,99695.67
2019-03-01T22:07:09.301Z,99697.55
2019-03-01T22:09:40.400Z,99694.97
2019-03-01T22:12:11.411Z,99700.97
2019-03-01T22:14:45.650Z,99695.10
2019-03-01T22:17:15.291Z,99705.00
2019-03-01T22:19:47.158Z,99697.70
2019-03-01T22:22:18.114Z,99698.36
2019-03-01T22:24:50.077Z,99701.69
2019-03-01T22:27:21.603Z,99701.69
2019-03-01T22:29:53.730Z,99694.48
2019-03-01T22:32:24.567Z,99700.84
2019-03-01T22:34:55.700Z,99699.84
2019-03-01T22:37:28.456Z,99701.69
2019-03-01T22:39:59.407Z,99704.17
2019-03-01T22:42:30.316Z,99706.86
2019-03-01T22:45:01.301Z,99705.32
2019-03-01T22:47:35.962Z,99709.70
2019-03-01T22:50:06.993Z,99709.65
2019-03-01T22:52:38.086Z,99708.81
2019-03-01T22:55:10.053Z,99710.59
2019-03-01T22:57:40.976Z,99710.80
2019-03-01T23:00:51.031Z,99713.28
2019-03-01T23:03:25.096Z,99715.80
2019-03-01T23:05:56.329Z,99715.60
2019-03-01T23:08:27.111Z,99715.55
2019-03-01T23:10:58.214Z,99718.84
2019-03-01T23:13:29.184Z,99714.31
2019-03-01T23:16:00.197Z,99719.48
2019-03-01T23:18:31.074Z,99720.52
2019-03-01T23:21:02.039Z,99713.81
2019-03-01T23:23:32.838Z,99714.56
2019-03-01T23:26:04.098Z,99717.39
2019-03-01T23:28:34.942Z,99714.76
2019-03-01T23:31:06.008Z,99719.09
2019-03-01T23:33:36.944Z,99719.34
2019-03-01T23:36:07.800Z,99725.80
2019-03-01T23:38:38.595Z,99730.30
2019-03-01T23:41:11.448Z,99732.20
2019-03-01T23:43:43.210Z,99727.81
2019-03-01T23:46:15.033Z,99722.75
2019-03-01T23:48:48.920Z,99728.38
2019-03-01T23:51:18.542Z,99728.52
2019-03-01T23:53:49.349Z,99725.88
2019-03-01T23:56:20.242Z,99723.00
2019-03-01T23:58:51.821Z,99715.99
